sensor_id;sensor_type;location;lat;lon;timestamp;P1;durP1;ratioP1;P2;durP2;ratioP2
75986;SDS011;64671;44.726;37.764;2022-10-31T00:00:13;3.47;;;1.60;;
75986;SDS011;64671;44.726;37.764;2022-10-31T00:01:20;3.38;;;1.70;;
75986;SDS011;64671;44.726;37.764;2022-10-31T00:02:26;3.05;;;1.90;;
75986;SDS011;64671;44.726;37.764;2022-10-31T00:03:28;2.78;;;1.60;;
75986;SDS011;64671;44.726;37.764;2022-10-31T00:05:32;2.10;;;1.45;;
75986;SDS011;64671;44.726;37.764;2022-10-31T00:07:35;3.08;;;1.90;;
75986;SDS011;64671;44.726;37.764;2022-10-31T00:09:38;1.55;;;1.40;;
75986;SDS011;64671;44.726;37.764;2022-10-31T00:11:41;1.75;;;1.40;;
75986;SDS011;64671;44.726;37.764;2022-10-31T00:12:43;2.15;;;1.50;;
75986;SDS011;64671;44.726;37.764;2022-10-31T00:13:44;2.28;;;1.50;;
75986;SDS011;64671;44.726;37.764;2022-10-31T00:14:46;2.75;;;1.63;;
75986;SDS011;64671;44.726;37.764;2022-10-31T00:15:49;2.83;;;1.92;;
75986;SDS011;64671;44.726;37.764;2022-10-31T00:17:52;2.05;;;1.60;;
75986;SDS011;64671;44.726;37.764;2022-10-31T00:19:56;1.77;;;1.52;;
75986;SDS011;64671;44.726;37.764;2022-10-31T00:20:58;2.67;;;1.70;;
75986;SDS011;64671;44.726;37.764;2022-10-31T00:22:01;2.45;;;1.50;;
75986;SDS011;64671;44.726;37.764;2022-10-31T00:23:03;2.00;;;1.80;;
75986;SDS011;64671;44.726;37.764;2022-10-31T00:24:11;3.63;;;1.73;;
75986;SDS011;64671;44.726;37.764;2022-10-31T00:26:18;4.20;;;1.50;;
75986;SDS011;64671;44.726;37.764;2022-10-31T00:27:20;1.73;;;1.30;;
75986;SDS011;64671;44.726;37.764;2022-10-31T00:28:21;2.42;;;1.48;;
75986;SDS011;64671;44.726;37.764;2022-10-31T00:29:23;2.22;;;1.65;;
75986;SDS011;64671;44.726;37.764;2022-10-31T00:30:24;1.40;;;1.30;;
75986;SDS011;64671;44.726;37.764;2022-10-31T00:31:26;2.28;;;1.70;;
75986;SDS011;64671;44.726;37.764;2022-10-31T00:32:28;1.83;;;1.42;;
75986;SDS011;64671;44.726;37.764;2022-10-31T00:33:32;2.05;;;1.60;;
75986;SDS011;64671;44.726;37.764;2022-10-31T00:34:34;1.75;;;1.60;;
75986;SDS011;64671;44.726;37.764;2022-10-31T00:35:36;1.98;;;1.45;;
75986;SDS011;64671;44.726;37.764;2022-10-31T00:36:38;3.72;;;1.42;;
75986;SDS011;64671;44.726;37.764;2022-10-31T00:37:39;2.10;;;1.60;;
75986;SDS011;64671;44.726;37.764;2022-10-31T00:38:41;2.58;;;1.73;;
75986;SDS011;64671;44.726;37.764;2022-10-31T00:39:43;2.97;;;1.67;;
75986;SDS011;64671;44.726;37.764;2022-10-31T00:40:45;2.33;;;1.77;;
75986;SDS011;64671;44.726;37.764;2022-10-31T00:41:48;3.47;;;1.70;;
75986;SDS011;64671;44.726;37.764;2022-10-31T00:42:49;3.17;;;1.60;;
75986;SDS011;64671;44.726;37.764;2022-10-31T00:43:51;2.75;;;1.80;;
75986;SDS011;64671;44.726;37.764;2022-10-31T00:44:52;1.70;;;1.40;;
75986;SDS011;64671;44.726;37.764;2022-10-31T00:45:54;3.13;;;1.60;;
75986;SDS011;64671;44.726;37.764;2022-10-31T00:46:59;2.65;;;1.52;;
75986;SDS011;64671;44.726;37.764;2022-10-31T00:48:00;1.90;;;1.48;;
75986;SDS011;64671;44.726;37.764;2022-10-31T00:49:03;2.60;;;1.60;;
75986;SDS011;64671;44.726;37.764;2022-10-31T00:50:05;4.05;;;1.73;;
75986;SDS011;64671;44.726;37.764;2022-10-31T00:51:08;2.10;;;1.77;;
75986;SDS011;64671;44.726;37.764;2022-10-31T00:52:09;2.72;;;1.52;;
75986;SDS011;64671;44.726;37.764;2022-10-31T00:53:11;2.50;;;1.63;;
75986;SDS011;64671;44.726;37.764;2022-10-31T00:55:14;3.53;;;1.73;;
75986;SDS011;64671;44.726;37.764;2022-10-31T00:56:16;3.25;;;1.55;;
75986;SDS011;64671;44.726;37.764;2022-10-31T00:57:17;2.80;;;1.40;;
75986;SDS011;64671;44.726;37.764;2022-10-31T00:58:18;2.25;;;1.67;;
75986;SDS011;64671;44.726;37.764;2022-10-31T00:59:20;1.77;;;1.50;;
75986;SDS011;64671;44.726;37.764;2022-10-31T01:00:21;2.95;;;1.60;;
75986;SDS011;64671;44.726;37.764;2022-10-31T01:01:23;2.13;;;1.60;;
75986;SDS011;64671;44.726;37.764;2022-10-31T01:02:24;1.90;;;1.58;;
75986;SDS011;64671;44.726;37.764;2022-10-31T01:03:27;2.45;;;1.80;;
75986;SDS011;64671;44.726;37.764;2022-10-31T01:04:30;2.03;;;1.60;;
75986;SDS011;64671;44.726;37.764;2022-10-31T01:05:32;3.05;;;1.67;;
75986;SDS011;64671;44.726;37.764;2022-10-31T01:06:33;3.28;;;1.90;;
75986;SDS011;64671;44.726;37.764;2022-10-31T01:07:36;3.42;;;1.90;;
75986;SDS011;64671;44.726;37.764;2022-10-31T01:08:39;3.20;;;1.75;;
75986;SDS011;64671;44.726;37.764;2022-10-31T01:09:41;4.70;;;1.90;;
75986;SDS011;64671;44.726;37.764;2022-10-31T01:10:45;4.20;;;1.70;;
75986;SDS011;64671;44.726;37.764;2022-10-31T01:11:46;3.08;;;1.77;;
75986;SDS011;64671;44.726;37.764;2022-10-31T01:12:48;2.75;;;1.50;;
75986;SDS011;64671;44.726;37.764;2022-10-31T01:13:52;2.88;;;2.03;;
75986;SDS011;64671;44.726;37.764;2022-10-31T01:14:54;2.80;;;1.60;;
75986;SDS011;64671;44.726;37.764;2022-10-31T01:15:56;2.00;;;1.73;;
75986;SDS011;64671;44.726;37.764;2022-10-31T01:17:01;2.33;;;1.60;;
75986;SDS011;64671;44.726;37.764;2022-10-31T01:19:05;3.03;;;1.98;;
75986;SDS011;64671;44.726;37.764;2022-10-31T01:20:07;2.40;;;1.63;;
75986;SDS011;64671;44.726;37.764;2022-10-31T01:21:17;2.47;;;1.70;;
75986;SDS011;64671;44.726;37.764;2022-10-31T01:22:19;3.05;;;2.30;;
75986;SDS011;64671;44.726;37.764;2022-10-31T01:23:21;3.05;;;1.73;;
75986;SDS011;64671;44.726;37.764;2022-10-31T01:24:22;3.67;;;2.03;;
75986;SDS011;64671;44.726;37.764;2022-10-31T01:26:26;2.67;;;1.55;;
75986;SDS011;64671;44.726;37.764;2022-10-31T01:27:31;4.75;;;2.15;;
75986;SDS011;64671;44.726;37.764;2022-10-31T01:28:34;3.00;;;1.70;;
75986;SDS011;64671;44.726;37.764;2022-10-31T01:29:39;3.50;;;2.17;;
75986;SDS011;64671;44.726;37.764;2022-10-31T01:30:41;2.78;;;1.63;;
75986;SDS011;64671;44.726;37.764;2022-10-31T01:31:42;2.50;;;2.00;;
75986;SDS011;64671;44.726;37.764;2022-10-31T01:32:44;2.28;;;1.55;;
75986;SDS011;64671;44.726;37.764;2022-10-31T01:33:45;3.15;;;1.70;;
75986;SDS011;64671;44.726;37.764;2022-10-31T01:34:47;3.95;;;2.03;;
75986;SDS011;64671;44.726;37.764;2022-10-31T01:35:48;2.75;;;1.83;;
75986;SDS011;64671;44.726;37.764;2022-10-31T01:36:50;3.33;;;1.70;;
75986;SDS011;64671;44.726;37.764;2022-10-31T01:37:52;2.13;;;1.60;;
75986;SDS011;64671;44.726;37.764;2022-10-31T01:38:55;3.55;;;1.77;;
75986;SDS011;64671;44.726;37.764;2022-10-31T01:39:58;3.08;;;1.67;;
75986;SDS011;64671;44.726;37.764;2022-10-31T01:41:00;2.42;;;1.58;;
75986;SDS011;64671;44.726;37.764;2022-10-31T01:42:01;2.80;;;1.75;;
75986;SDS011;64671;44.726;37.764;2022-10-31T01:43:03;3.58;;;1.73;;
75986;SDS011;64671;44.726;37.764;2022-10-31T01:45:18;4.22;;;1.77;;
75986;SDS011;64671;44.726;37.764;2022-10-31T01:46:24;2.42;;;1.60;;
75986;SDS011;64671;44.726;37.764;2022-10-31T01:47:46;4.35;;;1.80;;
75986;SDS011;64671;44.726;37.764;2022-10-31T01:48:50;3.22;;;1.80;;
75986;SDS011;64671;44.726;37.764;2022-10-31T01:49:55;2.60;;;1.60;;
75986;SDS011;64671;44.726;37.764;2022-10-31T01:51:00;3.92;;;1.65;;
75986;SDS011;64671;44.726;37.764;2022-10-31T01:52:05;2.00;;;1.52;;
75986;SDS011;64671;44.726;37.764;2022-10-31T01:53:14;2.25;;;1.80;;
75986;SDS011;64671;44.726;37.764;2022-10-31T01:54:18;2.80;;;1.80;;
75986;SDS011;64671;44.726;37.764;2022-10-31T01:55:27;2.75;;;1.98;;
75986;SDS011;64671;44.726;37.764;2022-10-31T01:56:32;2.38;;;1.63;;
75986;SDS011;64671;44.726;37.764;2022-10-31T01:57:37;2.17;;;1.30;;
75986;SDS011;64671;44.726;37.764;2022-10-31T01:58:43;2.00;;;1.70;;
75986;SDS011;64671;44.726;37.764;2022-10-31T01:59:52;2.28;;;1.70;;
75986;SDS011;64671;44.726;37.764;2022-10-31T02:00:59;3.38;;;1.60;;
75986;SDS011;64671;44.726;37.764;2022-10-31T02:02:02;1.70;;;1.60;;
75986;SDS011;64671;44.726;37.764;2022-10-31T02:03:03;2.38;;;1.80;;
75986;SDS011;64671;44.726;37.764;2022-10-31T02:04:05;2.10;;;1.75;;
75986;SDS011;64671;44.726;37.764;2022-10-31T02:05:10;1.98;;;1.73;;
75986;SDS011;64671;44.726;37.764;2022-10-31T02:07:29;2.00;;;1.60;;
75986;SDS011;64671;44.726;37.764;2022-10-31T02:09:02;3.55;;;1.75;;
75986;SDS011;64671;44.726;37.764;2022-10-31T02:10:05;2.65;;;1.95;;
75986;SDS011;64671;44.726;37.764;2022-10-31T02:11:07;2.78;;;2.47;;
75986;SDS011;64671;44.726;37.764;2022-10-31T02:12:11;2.30;;;1.60;;
75986;SDS011;64671;44.726;37.764;2022-10-31T02:13:13;2.35;;;1.77;;
75986;SDS011;64671;44.726;37.764;2022-10-31T02:14:22;3.03;;;1.80;;
75986;SDS011;64671;44.726;37.764;2022-10-31T02:15:26;2.42;;;2.17;;
75986;SDS011;64671;44.726;37.764;2022-10-31T02:16:29;3.72;;;1.80;;
75986;SDS011;64671;44.726;37.764;2022-10-31T02:18:32;2.28;;;1.70;;
75986;SDS011;64671;44.726;37.764;2022-10-31T02:25:47;2.00;;;1.80;;
75986;SDS011;64671;44.726;37.764;2022-10-31T02:27:14;2.97;;;1.85;;
75986;SDS011;64671;44.726;37.764;2022-10-31T02:30:05;2.95;;;2.08;;
75986;SDS011;64671;44.726;37.764;2022-10-31T02:31:40;3.38;;;1.75;;
75986;SDS011;64671;44.726;37.764;2022-10-31T02:33:07;1.65;;;1.42;;
75986;SDS011;64671;44.726;37.764;2022-10-31T02:37:14;2.45;;;2.00;;
75986;SDS011;64671;44.726;37.764;2022-10-31T02:41:37;2.63;;;2.10;;
75986;SDS011;64671;44.726;37.764;2022-10-31T02:42:50;2.10;;;1.80;;
75986;SDS011;64671;44.726;37.764;2022-10-31T02:44:08;2.33;;;1.98;;
75986;SDS011;64671;44.726;37.764;2022-10-31T02:47:40;2.63;;;1.63;;
75986;SDS011;64671;44.726;37.764;2022-10-31T02:48:44;3.47;;;2.08;;
75986;SDS011;64671;44.726;37.764;2022-10-31T02:51:02;2.17;;;1.60;;
75986;SDS011;64671;44.726;37.764;2022-10-31T02:52:20;2.10;;;1.90;;
75986;SDS011;64671;44.726;37.764;2022-10-31T02:53:24;2.38;;;1.92;;
75986;SDS011;64671;44.726;37.764;2022-10-31T02:56:34;2.13;;;1.75;;
75986;SDS011;64671;44.726;37.764;2022-10-31T02:57:35;4.28;;;2.00;;
75986;SDS011;64671;44.726;37.764;2022-10-31T02:58:38;2.53;;;1.80;;
75986;SDS011;64671;44.726;37.764;2022-10-31T02:59:46;2.60;;;2.10;;
75986;SDS011;64671;44.726;37.764;2022-10-31T03:00:54;1.88;;;1.60;;
75986;SDS011;64671;44.726;37.764;2022-10-31T03:02:28;3.13;;;1.95;;
75986;SDS011;64671;44.726;37.764;2022-10-31T03:05:11;3.33;;;1.60;;
75986;SDS011;64671;44.726;37.764;2022-10-31T03:09:32;2.10;;;1.90;;
75986;SDS011;64671;44.726;37.764;2022-10-31T03:12:04;2.15;;;1.92;;
75986;SDS011;64671;44.726;37.764;2022-10-31T03:15:16;2.20;;;1.80;;
75986;SDS011;64671;44.726;37.764;2022-10-31T03:18:08;3.30;;;2.08;;
75986;SDS011;64671;44.726;37.764;2022-10-31T03:19:16;3.13;;;2.00;;
75986;SDS011;64671;44.726;37.764;2022-10-31T03:20:35;1.75;;;1.60;;
75986;SDS011;64671;44.726;37.764;2022-10-31T03:21:43;2.90;;;2.08;;
75986;SDS011;64671;44.726;37.764;2022-10-31T03:22:48;2.53;;;1.75;;
75986;SDS011;64671;44.726;37.764;2022-10-31T03:24:54;2.83;;;1.90;;
75986;SDS011;64671;44.726;37.764;2022-10-31T03:25:57;2.15;;;1.88;;
75986;SDS011;64671;44.726;37.764;2022-10-31T03:27:02;2.92;;;2.08;;
75986;SDS011;64671;44.726;37.764;2022-10-31T03:28:07;2.63;;;1.92;;
75986;SDS011;64671;44.726;37.764;2022-10-31T03:29:11;2.83;;;1.98;;
75986;SDS011;64671;44.726;37.764;2022-10-31T03:30:16;3.22;;;2.10;;
75986;SDS011;64671;44.726;37.764;2022-10-31T03:31:33;3.05;;;2.20;;
75986;SDS011;64671;44.726;37.764;2022-10-31T03:33:48;2.58;;;2.38;;
75986;SDS011;64671;44.726;37.764;2022-10-31T03:34:52;3.20;;;2.55;;
75986;SDS011;64671;44.726;37.764;2022-10-31T03:35:57;2.60;;;1.95;;
75986;SDS011;64671;44.726;37.764;2022-10-31T03:37:03;2.25;;;1.88;;
75986;SDS011;64671;44.726;37.764;2022-10-31T03:38:09;2.13;;;1.88;;
75986;SDS011;64671;44.726;37.764;2022-10-31T03:39:13;3.72;;;2.40;;
75986;SDS011;64671;44.726;37.764;2022-10-31T03:40:18;2.40;;;2.20;;
75986;SDS011;64671;44.726;37.764;2022-10-31T03:41:23;2.55;;;2.35;;
75986;SDS011;64671;44.726;37.764;2022-10-31T03:42:30;2.78;;;2.53;;
75986;SDS011;64671;44.726;37.764;2022-10-31T03:43:36;3.40;;;2.60;;
75986;SDS011;64671;44.726;37.764;2022-10-31T03:44:44;3.40;;;2.40;;
75986;SDS011;64671;44.726;37.764;2022-10-31T03:45:50;3.30;;;2.20;;
75986;SDS011;64671;44.726;37.764;2022-10-31T03:46:52;3.00;;;2.47;;
75986;SDS011;64671;44.726;37.764;2022-10-31T03:47:55;2.65;;;2.17;;
75986;SDS011;64671;44.726;37.764;2022-10-31T03:48:58;2.97;;;2.47;;
75986;SDS011;64671;44.726;37.764;2022-10-31T03:50:00;2.83;;;2.33;;
75986;SDS011;64671;44.726;37.764;2022-10-31T03:51:22;3.30;;;2.38;;
75986;SDS011;64671;44.726;37.764;2022-10-31T03:52:41;2.88;;;2.30;;
75986;SDS011;64671;44.726;37.764;2022-10-31T03:53:57;2.80;;;2.30;;
75986;SDS011;64671;44.726;37.764;2022-10-31T03:55:07;2.70;;;2.00;;
75986;SDS011;64671;44.726;37.764;2022-10-31T03:56:17;2.85;;;2.30;;
75986;SDS011;64671;44.726;37.764;2022-10-31T03:57:28;2.90;;;2.20;;
75986;SDS011;64671;44.726;37.764;2022-10-31T03:58:58;4.43;;;2.55;;
75986;SDS011;64671;44.726;37.764;2022-10-31T04:00:03;3.00;;;2.53;;
75986;SDS011;64671;44.726;37.764;2022-10-31T04:01:18;2.30;;;2.10;;
75986;SDS011;64671;44.726;37.764;2022-10-31T04:02:23;2.92;;;2.28;;
75986;SDS011;64671;44.726;37.764;2022-10-31T04:03:30;2.60;;;2.00;;
75986;SDS011;64671;44.726;37.764;2022-10-31T04:04:36;2.20;;;2.00;;
75986;SDS011;64671;44.726;37.764;2022-10-31T04:05:39;2.38;;;2.05;;
75986;SDS011;64671;44.726;37.764;2022-10-31T04:06:43;2.10;;;1.98;;
75986;SDS011;64671;44.726;37.764;2022-10-31T04:07:49;2.25;;;2.05;;
75986;SDS011;64671;44.726;37.764;2022-10-31T04:08:56;4.10;;;2.17;;
75986;SDS011;64671;44.726;37.764;2022-10-31T04:10:02;2.83;;;2.33;;
75986;SDS011;64671;44.726;37.764;2022-10-31T04:11:06;2.22;;;2.00;;
75986;SDS011;64671;44.726;37.764;2022-10-31T04:12:14;2.08;;;1.80;;
75986;SDS011;64671;44.726;37.764;2022-10-31T04:13:35;3.55;;;1.88;;
75986;SDS011;64671;44.726;37.764;2022-10-31T04:14:46;3.78;;;2.25;;
75986;SDS011;64671;44.726;37.764;2022-10-31T04:15:49;3.28;;;2.17;;
75986;SDS011;64671;44.726;37.764;2022-10-31T04:16:53;2.10;;;1.73;;
75986;SDS011;64671;44.726;37.764;2022-10-31T04:18:05;3.33;;;2.08;;
75986;SDS011;64671;44.726;37.764;2022-10-31T04:19:07;2.25;;;2.05;;
75986;SDS011;64671;44.726;37.764;2022-10-31T04:21:10;2.78;;;1.90;;
75986;SDS011;64671;44.726;37.764;2022-10-31T04:23:45;4.28;;;1.80;;
75986;SDS011;64671;44.726;37.764;2022-10-31T04:24:50;2.72;;;2.00;;
75986;SDS011;64671;44.726;37.764;2022-10-31T04:25:52;5.38;;;1.73;;
75986;SDS011;64671;44.726;37.764;2022-10-31T04:26:53;4.40;;;2.10;;
75986;SDS011;64671;44.726;37.764;2022-10-31T04:27:57;2.53;;;2.30;;
75986;SDS011;64671;44.726;37.764;2022-10-31T04:28:58;2.97;;;2.03;;
75986;SDS011;64671;44.726;37.764;2022-10-31T04:30:01;2.72;;;2.17;;
75986;SDS011;64671;44.726;37.764;2022-10-31T04:31:07;2.35;;;1.80;;
75986;SDS011;64671;44.726;37.764;2022-10-31T04:32:12;2.90;;;1.85;;
75986;SDS011;64671;44.726;37.764;2022-10-31T04:33:14;1.90;;;1.75;;
75986;SDS011;64671;44.726;37.764;2022-10-31T04:34:17;2.53;;;1.80;;
75986;SDS011;64671;44.726;37.764;2022-10-31T04:35:19;3.75;;;1.95;;
75986;SDS011;64671;44.726;37.764;2022-10-31T04:36:20;4.28;;;2.10;;
75986;SDS011;64671;44.726;37.764;2022-10-31T04:38:24;8.77;;;2.35;;
75986;SDS011;64671;44.726;37.764;2022-10-31T04:40:45;3.95;;;2.83;;
75986;SDS011;64671;44.726;37.764;2022-10-31T04:42:09;3.22;;;2.00;;
75986;SDS011;64671;44.726;37.764;2022-10-31T04:43:11;3.15;;;2.00;;
75986;SDS011;64671;44.726;37.764;2022-10-31T04:44:13;3.38;;;2.40;;
75986;SDS011;64671;44.726;37.764;2022-10-31T04:46:16;2.55;;;1.73;;
75986;SDS011;64671;44.726;37.764;2022-10-31T04:48:19;4.50;;;1.70;;
75986;SDS011;64671;44.726;37.764;2022-10-31T04:49:20;3.55;;;2.20;;
75986;SDS011;64671;44.726;37.764;2022-10-31T04:50:21;3.13;;;1.88;;
75986;SDS011;64671;44.726;37.764;2022-10-31T04:51:23;3.88;;;1.80;;
75986;SDS011;64671;44.726;37.764;2022-10-31T04:52:25;2.50;;;1.85;;
75986;SDS011;64671;44.726;37.764;2022-10-31T04:53:27;3.97;;;1.90;;
75986;SDS011;64671;44.726;37.764;2022-10-31T04:54:49;3.30;;;1.52;;
75986;SDS011;64671;44.726;37.764;2022-10-31T04:56:11;4.32;;;1.80;;
75986;SDS011;64671;44.726;37.764;2022-10-31T04:57:16;2.42;;;1.52;;
75986;SDS011;64671;44.726;37.764;2022-10-31T04:58:18;3.75;;;1.70;;
75986;SDS011;64671;44.726;37.764;2022-10-31T04:59:19;2.83;;;1.80;;
75986;SDS011;64671;44.726;37.764;2022-10-31T05:00:30;2.75;;;1.52;;
75986;SDS011;64671;44.726;37.764;2022-10-31T05:01:31;2.50;;;1.80;;
75986;SDS011;64671;44.726;37.764;2022-10-31T05:02:34;2.38;;;2.00;;
75986;SDS011;64671;44.726;37.764;2022-10-31T05:03:43;2.72;;;1.95;;
75986;SDS011;64671;44.726;37.764;2022-10-31T05:04:44;1.85;;;1.73;;
75986;SDS011;64671;44.726;37.764;2022-10-31T05:06:47;3.83;;;1.60;;
75986;SDS011;64671;44.726;37.764;2022-10-31T05:07:49;2.45;;;1.67;;
75986;SDS011;64671;44.726;37.764;2022-10-31T05:08:53;5.22;;;2.20;;
75986;SDS011;64671;44.726;37.764;2022-10-31T05:09:54;2.33;;;1.70;;
75986;SDS011;64671;44.726;37.764;2022-10-31T05:10:59;3.45;;;2.25;;
75986;SDS011;64671;44.726;37.764;2022-10-31T05:12:02;2.47;;;1.80;;
75986;SDS011;64671;44.726;37.764;2022-10-31T05:13:22;2.47;;;1.90;;
75986;SDS011;64671;44.726;37.764;2022-10-31T05:14:42;5.03;;;1.90;;
75986;SDS011;64671;44.726;37.764;2022-10-31T05:16:03;2.85;;;1.77;;
75986;SDS011;64671;44.726;37.764;2022-10-31T05:17:27;3.33;;;1.60;;
75986;SDS011;64671;44.726;37.764;2022-10-31T05:18:47;2.92;;;1.65;;
75986;SDS011;64671;44.726;37.764;2022-10-31T05:20:07;2.90;;;1.80;;
75986;SDS011;64671;44.726;37.764;2022-10-31T05:21:27;2.38;;;1.65;;
75986;SDS011;64671;44.726;37.764;2022-10-31T05:22:33;3.58;;;1.80;;
75986;SDS011;64671;44.726;37.764;2022-10-31T05:23:35;2.03;;;1.63;;
75986;SDS011;64671;44.726;37.764;2022-10-31T05:24:38;3.22;;;2.00;;
75986;SDS011;64671;44.726;37.764;2022-10-31T05:25:40;3.35;;;1.95;;
75986;SDS011;64671;44.726;37.764;2022-10-31T05:26:41;2.45;;;1.80;;
75986;SDS011;64671;44.726;37.764;2022-10-31T05:27:44;2.65;;;1.60;;
75986;SDS011;64671;44.726;37.764;2022-10-31T05:28:47;1.75;;;1.63;;
75986;SDS011;64671;44.726;37.764;2022-10-31T05:29:48;1.75;;;1.65;;
75986;SDS011;64671;44.726;37.764;2022-10-31T05:30:50;2.70;;;1.60;;
75986;SDS011;64671;44.726;37.764;2022-10-31T05:31:51;2.00;;;1.63;;
75986;SDS011;64671;44.726;37.764;2022-10-31T05:33:22;2.45;;;1.77;;
75986;SDS011;64671;44.726;37.764;2022-10-31T05:34:42;3.88;;;1.75;;
75986;SDS011;64671;44.726;37.764;2022-10-31T05:36:21;1.90;;;1.60;;
75986;SDS011;64671;44.726;37.764;2022-10-31T05:37:32;2.47;;;1.63;;
75986;SDS011;64671;44.726;37.764;2022-10-31T05:38:34;4.00;;;1.77;;
75986;SDS011;64671;44.726;37.764;2022-10-31T05:39:50;2.83;;;1.70;;
75986;SDS011;64671;44.726;37.764;2022-10-31T05:40:54;1.77;;;1.65;;
75986;SDS011;64671;44.726;37.764;2022-10-31T05:41:58;2.50;;;1.63;;
75986;SDS011;64671;44.726;37.764;2022-10-31T05:43:01;3.30;;;2.03;;
75986;SDS011;64671;44.726;37.764;2022-10-31T05:45:07;1.92;;;1.70;;
75986;SDS011;64671;44.726;37.764;2022-10-31T05:46:27;2.33;;;1.85;;
75986;SDS011;64671;44.726;37.764;2022-10-31T05:47:57;2.63;;;1.92;;
75986;SDS011;64671;44.726;37.764;2022-10-31T05:49:19;2.63;;;1.50;;
75986;SDS011;64671;44.726;37.764;2022-10-31T05:50:20;2.28;;;1.98;;
75986;SDS011;64671;44.726;37.764;2022-10-31T05:51:27;2.35;;;1.40;;
75986;SDS011;64671;44.726;37.764;2022-10-31T05:53:37;2.08;;;1.70;;
75986;SDS011;64671;44.726;37.764;2022-10-31T05:54:39;2.03;;;1.60;;
75986;SDS011;64671;44.726;37.764;2022-10-31T05:55:41;2.50;;;1.65;;
75986;SDS011;64671;44.726;37.764;2022-10-31T05:56:46;2.50;;;1.83;;
75986;SDS011;64671;44.726;37.764;2022-10-31T05:57:48;1.80;;;1.50;;
75986;SDS011;64671;44.726;37.764;2022-10-31T05:58:49;3.25;;;1.85;;
75986;SDS011;64671;44.726;37.764;2022-10-31T05:59:50;2.20;;;1.67;;
75986;SDS011;64671;44.726;37.764;2022-10-31T06:00:53;1.45;;;1.35;;
75986;SDS011;64671;44.726;37.764;2022-10-31T06:01:55;2.40;;;1.60;;
75986;SDS011;64671;44.726;37.764;2022-10-31T06:03:14;3.15;;;1.50;;
75986;SDS011;64671;44.726;37.764;2022-10-31T06:04:21;3.42;;;1.60;;
75986;SDS011;64671;44.726;37.764;2022-10-31T06:05:22;2.33;;;1.42;;
75986;SDS011;64671;44.726;37.764;2022-10-31T06:06:24;2.30;;;1.40;;
75986;SDS011;64671;44.726;37.764;2022-10-31T06:07:26;2.72;;;1.42;;
75986;SDS011;64671;44.726;37.764;2022-10-31T06:08:28;2.33;;;1.70;;
75986;SDS011;64671;44.726;37.764;2022-10-31T06:09:31;1.75;;;1.60;;
75986;SDS011;64671;44.726;37.764;2022-10-31T06:10:32;2.25;;;1.48;;
75986;SDS011;64671;44.726;37.764;2022-10-31T06:12:38;2.38;;;1.52;;
75986;SDS011;64671;44.726;37.764;2022-10-31T06:14:05;2.67;;;1.60;;
75986;SDS011;64671;44.726;37.764;2022-10-31T06:15:24;2.22;;;1.42;;
75986;SDS011;64671;44.726;37.764;2022-10-31T06:16:27;1.85;;;1.42;;
75986;SDS011;64671;44.726;37.764;2022-10-31T06:17:32;1.75;;;1.13;;
75986;SDS011;64671;44.726;37.764;2022-10-31T06:18:54;2.00;;;1.45;;
75986;SDS011;64671;44.726;37.764;2022-10-31T06:19:55;2.70;;;1.45;;
75986;SDS011;64671;44.726;37.764;2022-10-31T06:21:01;2.88;;;1.63;;
75986;SDS011;64671;44.726;37.764;2022-10-31T06:22:03;1.50;;;1.40;;
75986;SDS011;64671;44.726;37.764;2022-10-31T06:23:04;1.70;;;1.55;;
75986;SDS011;64671;44.726;37.764;2022-10-31T06:24:07;2.05;;;1.55;;
75986;SDS011;64671;44.726;37.764;2022-10-31T06:25:41;2.67;;;1.55;;
75986;SDS011;64671;44.726;37.764;2022-10-31T06:26:43;2.80;;;1.30;;
75986;SDS011;64671;44.726;37.764;2022-10-31T06:27:45;2.13;;;1.42;;
75986;SDS011;64671;44.726;37.764;2022-10-31T06:28:48;1.85;;;1.33;;
75986;SDS011;64671;44.726;37.764;2022-10-31T06:30:08;2.00;;;1.20;;
75986;SDS011;64671;44.726;37.764;2022-10-31T06:31:11;3.00;;;1.45;;
75986;SDS011;64671;44.726;37.764;2022-10-31T06:32:12;2.00;;;1.80;;
75986;SDS011;64671;44.726;37.764;2022-10-31T06:33:17;1.60;;;1.50;;
75986;SDS011;64671;44.726;37.764;2022-10-31T06:34:28;1.77;;;1.58;;
75986;SDS011;64671;44.726;37.764;2022-10-31T06:35:30;2.10;;;1.40;;
75986;SDS011;64671;44.726;37.764;2022-10-31T06:36:33;3.58;;;1.85;;
75986;SDS011;64671;44.726;37.764;2022-10-31T06:37:34;2.22;;;1.50;;
75986;SDS011;64671;44.726;37.764;2022-10-31T06:38:46;1.65;;;1.50;;
75986;SDS011;64671;44.726;37.764;2022-10-31T06:39:50;2.00;;;1.33;;
75986;SDS011;64671;44.726;37.764;2022-10-31T06:40:52;1.95;;;1.52;;
75986;SDS011;64671;44.726;37.764;2022-10-31T06:42:00;1.65;;;1.30;;
75986;SDS011;64671;44.726;37.764;2022-10-31T06:43:02;2.60;;;1.45;;
75986;SDS011;64671;44.726;37.764;2022-10-31T06:44:05;2.22;;;1.55;;
75986;SDS011;64671;44.726;37.764;2022-10-31T06:45:26;1.40;;;1.30;;
75986;SDS011;64671;44.726;37.764;2022-10-31T06:46:46;1.80;;;1.70;;
75986;SDS011;64671;44.726;37.764;2022-10-31T06:48:09;2.42;;;1.48;;
75986;SDS011;64671;44.726;37.764;2022-10-31T06:49:16;1.92;;;1.73;;
75986;SDS011;64671;44.726;37.764;2022-10-31T06:50:27;1.80;;;1.70;;
75986;SDS011;64671;44.726;37.764;2022-10-31T06:52:30;2.78;;;1.60;;
75986;SDS011;64671;44.726;37.764;2022-10-31T06:54:32;1.98;;;1.42;;
75986;SDS011;64671;44.726;37.764;2022-10-31T06:55:37;2.38;;;1.73;;
75986;SDS011;64671;44.726;37.764;2022-10-31T06:56:39;1.90;;;1.67;;
75986;SDS011;64671;44.726;37.764;2022-10-31T06:57:40;1.65;;;1.35;;
75986;SDS011;64671;44.726;37.764;2022-10-31T06:58:42;2.08;;;1.40;;
75986;SDS011;64671;44.726;37.764;2022-10-31T06:59:45;2.00;;;1.30;;
75986;SDS011;64671;44.726;37.764;2022-10-31T07:00:53;2.50;;;1.95;;
75986;SDS011;64671;44.726;37.764;2022-10-31T07:01:55;2.80;;;1.92;;
75986;SDS011;64671;44.726;37.764;2022-10-31T07:03:58;2.45;;;1.33;;
75986;SDS011;64671;44.726;37.764;2022-10-31T07:06:10;1.52;;;1.42;;
75986;SDS011;64671;44.726;37.764;2022-10-31T07:07:13;2.15;;;1.52;;
75986;SDS011;64671;44.726;37.764;2022-10-31T07:08:14;1.67;;;1.30;;
75986;SDS011;64671;44.726;37.764;2022-10-31T07:10:17;1.70;;;1.40;;
75986;SDS011;64671;44.726;37.764;2022-10-31T07:11:26;2.25;;;1.33;;
75986;SDS011;64671;44.726;37.764;2022-10-31T07:12:29;2.45;;;1.42;;
75986;SDS011;64671;44.726;37.764;2022-10-31T07:13:32;1.80;;;1.60;;
75986;SDS011;64671;44.726;37.764;2022-10-31T07:14:40;2.33;;;1.40;;
75986;SDS011;64671;44.726;37.764;2022-10-31T07:15:42;1.75;;;1.38;;
75986;SDS011;64671;44.726;37.764;2022-10-31T07:16:47;3.67;;;1.60;;
75986;SDS011;64671;44.726;37.764;2022-10-31T07:17:50;2.15;;;1.35;;
75986;SDS011;64671;44.726;37.764;2022-10-31T07:18:52;1.90;;;1.25;;
75986;SDS011;64671;44.726;37.764;2022-10-31T07:19:53;2.72;;;1.33;;
75986;SDS011;64671;44.726;37.764;2022-10-31T07:20:55;1.70;;;1.60;;
75986;SDS011;64671;44.726;37.764;2022-10-31T07:23:01;2.05;;;1.67;;
75986;SDS011;64671;44.726;37.764;2022-10-31T07:24:04;1.85;;;1.75;;
75986;SDS011;64671;44.726;37.764;2022-10-31T07:25:18;1.73;;;1.20;;
75986;SDS011;64671;44.726;37.764;2022-10-31T07:26:39;2.78;;;1.55;;
75986;SDS011;64671;44.726;37.764;2022-10-31T07:27:44;1.77;;;1.35;;
75986;SDS011;64671;44.726;37.764;2022-10-31T07:28:47;1.52;;;1.42;;
75986;SDS011;64671;44.726;37.764;2022-10-31T07:29:50;2.60;;;1.60;;
75986;SDS011;64671;44.726;37.764;2022-10-31T07:30:55;1.80;;;1.60;;
75986;SDS011;64671;44.726;37.764;2022-10-31T07:31:57;1.60;;;1.20;;
75986;SDS011;64671;44.726;37.764;2022-10-31T07:33:02;2.13;;;1.25;;
75986;SDS011;64671;44.726;37.764;2022-10-31T07:34:23;1.48;;;1.38;;